Terminal Aerodrome Forecast
Issued by NWS Houston/Galveston, TX

Home | Current Version | Previous Version | Text Only | Print | Product List | Glossary On
Versions: 1 2 3 4 5 6 7 8 9 10 11 12 13 14 15 16 17 18 19 20 21
000
FTUS44 KHGX 311720
TAFCLL
TAF
KCLL 311720Z 3118/0118 17007KT P6SM VCTS SCT017CB
     FM010100 17007KT P6SM SCT035 BKN120
     FM010900 14005KT 4SM BR OVC015 PROB30 0110/0116 -RA
     FM011600 14007KT P6SM VCSH BKN015=

USA.gov is the U.S. government's official web portal to all federal, state and local government web resources and services.